createdAt,value
2019-01-21T00:00:42.866Z,44.73
2019-01-21T00:03:14.500Z,47.27
2019-01-21T00:05:37.881Z,47.50
2019-01-21T00:08:04.724Z,47.67
2019-01-21T00:10:31.258Z,46.53
2019-01-21T00:12:57.793Z,47.47
2019-01-21T00:15:24.326Z,47.57
2019-01-21T00:17:50.867Z,47.80
2019-01-21T00:20:17.703Z,52.07
2019-01-21T00:22:44.548Z,50.10
2019-01-21T00:25:11.083Z,53.07
2019-01-21T00:27:37.613Z,51.97
2019-01-21T00:30:04.152Z,53.23
2019-01-21T00:32:30.990Z,50.13
2019-01-21T00:34:57.524Z,53.20
2019-01-21T00:37:24.383Z,53.00
2019-01-21T00:39:51.230Z,55.90
2019-01-21T00:42:17.743Z,51.50
2019-01-21T00:44:44.587Z,55.30
2019-01-21T00:47:11.119Z,54.90
2019-01-21T00:49:37.669Z,53.10
2019-01-21T00:52:04.187Z,54.37
2019-01-21T00:54:31.030Z,53.70
2019-01-21T00:56:57.568Z,54.67
2019-01-21T00:59:24.098Z,56.70
2019-01-21T01:01:50.940Z,55.87
2019-01-21T01:04:17.475Z,55.40
2019-01-21T01:06:44.013Z,55.37
2019-01-21T01:09:11.158Z,54.27
2019-01-21T01:11:37.999Z,56.57
2019-01-21T01:14:04.535Z,54.20
2019-01-21T01:16:31.380Z,57.80
2019-01-21T01:18:57.911Z,57.30
2019-01-21T01:21:25.059Z,59.10
2019-01-21T01:23:51.594Z,57.93
2019-01-21T01:26:18.443Z,57.93
2019-01-21T01:28:44.973Z,58.07
2019-01-21T01:31:11.812Z,56.17
2019-01-21T01:33:38.653Z,58.97
2019-01-21T01:36:05.187Z,59.20
2019-01-21T01:38:31.722Z,56.93
2019-01-21T01:40:58.564Z,61.70
2019-01-21T01:43:25.099Z,58.93
2019-01-21T01:45:51.639Z,60.20
2019-01-21T01:48:18.207Z,56.47
2019-01-21T01:50:45.008Z,59.13
2019-01-21T01:53:11.850Z,56.80
2019-01-21T01:55:38.692Z,58.67
2019-01-21T01:58:05.227Z,57.23
2019-01-21T02:00:31.764Z,59.20
2019-01-21T02:02:58.604Z,57.03
2019-01-21T02:05:25.445Z,60.67
2019-01-21T02:07:52.287Z,64.60
2019-01-21T02:10:18.822Z,61.37
2019-01-21T02:12:45.970Z,60.87
2019-01-21T02:15:12.816Z,62.00
2019-01-21T02:17:39.349Z,62.17
2019-01-21T02:20:05.881Z,60.23
2019-01-21T02:22:32.417Z,58.13
2019-01-21T02:24:58.953Z,61.97
2019-01-21T02:27:26.099Z,61.37
2019-01-21T02:29:52.941Z,60.53
2019-01-21T02:32:19.474Z,61.47
2019-01-21T02:34:46.321Z,62.93
2019-01-21T02:37:13.159Z,61.53
2019-01-21T02:39:39.695Z,61.77
2019-01-21T02:42:06.538Z,62.33
2019-01-21T02:44:33.377Z,60.43
2019-01-21T02:46:59.910Z,62.13
2019-01-21T02:49:26.753Z,59.97
2019-01-21T02:51:53.289Z,61.90
2019-01-21T02:54:19.824Z,57.77
2019-01-21T02:56:46.357Z,60.00
2019-01-21T02:59:13.198Z,62.97
2019-01-21T03:01:40.039Z,61.43
2019-01-21T03:04:06.581Z,61.13
2019-01-21T03:06:33.117Z,62.37
2019-01-21T03:08:59.649Z,62.23
2019-01-21T03:11:26.179Z,63.50
2019-01-21T03:13:53.637Z,62.27
2019-01-21T03:16:20.176Z,64.03
2019-01-21T03:18:47.011Z,60.57
2019-01-21T03:21:13.854Z,59.23
2019-01-21T03:23:40.694Z,64.93
2019-01-21T03:26:07.536Z,64.33
2019-01-21T03:28:34.377Z,64.13
2019-01-21T03:31:00.913Z,65.47
2019-01-21T03:33:27.448Z,61.03
2019-01-21T03:35:54.295Z,62.80
2019-01-21T03:38:21.129Z,61.43
2019-01-21T03:40:47.970Z,67.93
2019-01-21T03:43:14.815Z,62.97
2019-01-21T03:45:41.655Z,59.73
2019-01-21T03:48:16.285Z,62.57
2019-01-21T03:50:36.568Z,62.07
2019-01-21T03:53:03.107Z,60.07
2019-01-21T03:55:29.942Z,60.63
2019-01-21T03:57:56.485Z,58.70
2019-01-21T04:00:23.938Z,60.10
2019-01-21T04:02:50.470Z,58.53
2019-01-21T04:05:17.004Z,57.50
2019-01-21T04:07:43.846Z,57.27
2019-01-21T04:10:10.712Z,57.30
2019-01-21T04:12:37.222Z,55.20
2019-01-21T04:15:04.677Z,53.00
2019-01-21T04:17:31.521Z,53.93
2019-01-21T04:19:58.361Z,55.40
2019-01-21T04:22:24.950Z,54.17
2019-01-21T04:24:51.639Z,55.97
2019-01-21T04:27:18.283Z,51.90
2019-01-21T04:29:44.809Z,53.40
2019-01-21T04:32:11.693Z,54.50
2019-01-21T04:34:38.491Z,48.90
2019-01-21T04:37:05.338Z,49.17
2019-01-21T04:39:31.876Z,47.73
2019-01-21T04:41:58.402Z,48.87
2019-01-21T04:44:25.243Z,49.40
2019-01-21T04:46:52.390Z,48.03
2019-01-21T04:49:19.236Z,49.00
2019-01-21T04:51:45.767Z,47.77
2019-01-21T04:54:12.611Z,45.97
2019-01-21T04:56:39.143Z,48.43
2019-01-21T04:59:05.986Z,48.07
2019-01-21T05:01:33.443Z,46.40
2019-01-21T05:04:00.286Z,43.77
2019-01-21T05:06:26.820Z,44.47
2019-01-21T05:08:53.354Z,46.07
2019-01-21T05:11:20.196Z,43.87
2019-01-21T05:13:46.732Z,43.67
2019-01-21T05:16:13.263Z,44.33
2019-01-21T05:18:41.282Z,43.33
2019-01-21T05:21:08.179Z,41.23
2019-01-21T05:23:35.016Z,40.53
2019-01-21T05:26:01.858Z,40.43
2019-01-21T05:28:28.394Z,42.57
2019-01-21T05:30:54.926Z,42.13
2019-01-21T05:33:22.076Z,41.47
2019-01-21T05:35:48.595Z,37.03
2019-01-21T05:38:15.451Z,38.27
2019-01-21T05:40:42.293Z,37.83
2019-01-21T05:43:08.831Z,38.80
2019-01-21T05:45:35.674Z,38.70
2019-01-21T05:48:02.510Z,36.63
2019-01-21T05:50:29.356Z,38.90
2019-01-21T05:52:55.888Z,37.87
2019-01-21T05:55:22.732Z,35.53
2019-01-21T05:57:49.327Z,38.00
2019-01-21T06:00:16.105Z,36.87
2019-01-21T06:02:42.948Z,36.00
2019-01-21T06:05:09.480Z,36.17
2019-01-21T06:07:36.327Z,36.07
2019-01-21T06:10:02.858Z,35.53
2019-01-21T06:12:29.394Z,36.27
2019-01-21T06:14:56.235Z,35.93
2019-01-21T06:17:22.773Z,35.20
2019-01-21T06:19:49.612Z,34.37
2019-01-21T06:22:16.453Z,34.33
2019-01-21T06:24:42.986Z,35.30
2019-01-21T06:27:09.832Z,33.33
2019-01-21T06:29:36.363Z,36.67
2019-01-21T06:32:03.205Z,33.07
2019-01-21T06:34:30.049Z,34.57
2019-01-21T06:36:56.582Z,33.53
2019-01-21T06:39:23.421Z,33.47
2019-01-21T06:41:49.946Z,31.73
2019-01-21T06:44:16.799Z,32.70
2019-01-21T06:46:43.334Z,32.97
2019-01-21T06:49:10.175Z,32.23
2019-01-21T06:51:36.721Z,31.70
2019-01-21T06:54:03.551Z,31.77
2019-01-21T06:56:30.086Z,31.43
2019-01-21T06:58:56.622Z,31.20
2019-01-21T07:01:23.463Z,33.43
2019-01-21T07:03:49.986Z,32.43
2019-01-21T07:06:16.459Z,31.10
2019-01-21T07:08:43.183Z,30.47
2019-01-21T07:11:09.910Z,32.17
2019-01-21T07:13:36.442Z,30.57
2019-01-21T07:16:02.976Z,31.20
2019-01-21T07:18:29.820Z,32.13
2019-01-21T07:20:56.387Z,31.40
2019-01-21T07:23:22.886Z,31.70
2019-01-21T07:25:49.728Z,32.37
2019-01-21T07:28:16.570Z,29.07
2019-01-21T07:30:43.418Z,30.57
2019-01-21T07:33:09.952Z,29.40
2019-01-21T07:35:36.787Z,29.27
2019-01-21T07:38:03.322Z,29.93
2019-01-21T07:40:30.163Z,30.10
2019-01-21T07:42:57.005Z,30.67
2019-01-21T07:45:23.848Z,30.20
2019-01-21T07:47:50.691Z,27.73
2019-01-21T07:50:17.530Z,31.20
2019-01-21T07:52:44.067Z,29.73
2019-01-21T07:55:10.909Z,29.90
2019-01-21T07:57:37.442Z,30.00
2019-01-21T08:00:04.283Z,30.97
2019-01-21T08:02:31.127Z,29.53
2019-01-21T08:04:57.659Z,27.80
2019-01-21T08:07:24.195Z,29.53
2019-01-21T08:09:50.734Z,30.13
2019-01-21T08:12:17.264Z,29.63
2019-01-21T08:14:43.942Z,30.67
2019-01-21T08:17:10.638Z,32.13
2019-01-21T08:19:37.566Z,30.23
2019-01-21T08:22:04.131Z,28.70
2019-01-21T08:24:30.856Z,32.20
2019-01-21T08:26:57.393Z,28.20
2019-01-21T08:29:24.238Z,30.03
2019-01-21T08:31:50.767Z,30.63
2019-01-21T08:34:17.619Z,29.93
2019-01-21T08:36:44.466Z,29.53
2019-01-21T08:39:11.295Z,27.77
2019-01-21T08:41:38.282Z,30.60
2019-01-21T08:44:05.283Z,28.07
2019-01-21T08:46:32.134Z,28.90
2019-01-21T08:48:58.746Z,28.90
2019-01-21T08:51:25.517Z,29.60
2019-01-21T08:53:52.347Z,29.37
2019-01-21T08:56:19.191Z,29.33
2019-01-21T08:58:46.045Z,30.57
2019-01-21T09:01:12.746Z,28.37
2019-01-21T09:03:39.442Z,29.63
2019-01-21T09:06:06.386Z,30.27
2019-01-21T09:08:37.562Z,27.63
2019-01-21T09:11:01.157Z,30.37
2019-01-21T09:13:27.692Z,30.00
2019-01-21T09:15:54.533Z,28.27
2019-01-21T09:18:21.399Z,30.50
2019-01-21T09:20:48.234Z,31.77
2019-01-21T09:23:15.127Z,29.53
2019-01-21T09:25:42.032Z,28.87
2019-01-21T09:28:08.755Z,29.23
2019-01-21T09:30:35.603Z,29.27
2019-01-21T09:33:02.587Z,28.43
2019-01-21T09:35:29.301Z,29.23
2019-01-21T09:37:55.800Z,29.33
2019-01-21T09:40:22.338Z,31.23
2019-01-21T09:42:49.177Z,28.33
2019-01-21T09:45:15.715Z,29.53
2019-01-21T09:47:42.553Z,29.27
2019-01-21T09:50:09.089Z,29.50
2019-01-21T09:52:35.624Z,29.77
2019-01-21T09:55:02.159Z,29.37
2019-01-21T09:57:28.691Z,31.23
2019-01-21T09:59:55.237Z,28.03
2019-01-21T10:02:21.760Z,28.37
2019-01-21T10:04:48.294Z,28.73
2019-01-21T10:07:15.139Z,27.33
2019-01-21T10:09:41.671Z,27.53
2019-01-21T10:12:08.206Z,28.07
2019-01-21T10:14:34.739Z,29.23
2019-01-21T10:17:01.274Z,28.47
2019-01-21T10:19:27.903Z,30.17
2019-01-21T10:21:54.659Z,28.07
2019-01-21T10:24:21.185Z,29.37
2019-01-21T10:26:47.718Z,29.93
2019-01-21T10:29:14.254Z,29.27
2019-01-21T10:31:41.096Z,30.83
2019-01-21T10:34:07.629Z,28.77
2019-01-21T10:36:34.164Z,28.87
2019-01-21T10:39:00.704Z,29.77
2019-01-21T10:41:27.246Z,29.73
2019-01-21T10:43:53.768Z,28.87
2019-01-21T10:46:20.303Z,27.93
2019-01-21T10:48:46.822Z,27.23
2019-01-21T10:51:13.372Z,28.73
2019-01-21T10:53:40.213Z,25.63
2019-01-21T10:56:06.748Z,29.77
2019-01-21T10:58:33.590Z,28.70
2019-01-21T11:01:00.219Z,28.37
2019-01-21T11:03:26.967Z,28.63
2019-01-21T11:05:53.501Z,27.83
2019-01-21T11:08:20.038Z,28.23
2019-01-21T11:10:46.573Z,28.20
2019-01-21T11:13:13.410Z,28.83
2019-01-21T11:15:39.947Z,28.07
2019-01-21T11:18:06.484Z,28.70
2019-01-21T11:20:33.014Z,30.03
2019-01-21T11:22:59.857Z,29.20
2019-01-21T11:25:26.698Z,28.47
2019-01-21T11:27:53.540Z,29.20
2019-01-21T11:30:20.381Z,28.30
2019-01-21T11:32:46.919Z,26.67
2019-01-21T11:35:13.451Z,27.37
2019-01-21T11:37:39.989Z,30.00
2019-01-21T11:40:07.676Z,25.93
2019-01-21T11:42:34.593Z,29.53
2019-01-21T11:45:01.125Z,27.10
2019-01-21T11:47:27.966Z,28.83
2019-01-21T11:49:54.807Z,28.40
2019-01-21T11:52:21.343Z,30.23
2019-01-21T11:54:47.885Z,30.23
2019-01-21T11:57:14.411Z,26.67
2019-01-21T11:59:41.253Z,28.13
2019-01-21T12:02:07.765Z,28.77
2019-01-21T12:04:34.646Z,28.57
2019-01-21T12:07:01.166Z,28.73
2019-01-21T12:09:28.928Z,30.13
2019-01-21T12:11:55.463Z,28.53
2019-01-21T12:14:21.996Z,29.03
2019-01-21T12:16:48.839Z,30.03
2019-01-21T12:19:15.373Z,28.13
2019-01-21T12:21:41.906Z,30.07
2019-01-21T12:24:08.444Z,29.70
2019-01-21T12:26:34.976Z,30.07
2019-01-21T12:29:02.063Z,30.60
2019-01-21T12:31:28.967Z,27.63
2019-01-21T12:33:55.504Z,28.87
2019-01-21T12:36:22.035Z,29.73
2019-01-21T12:38:48.573Z,30.13
2019-01-21T12:41:21.409Z,29.20
2019-01-21T12:43:43.175Z,29.33
2019-01-21T12:46:09.709Z,30.60
2019-01-21T12:48:36.244Z,31.20
2019-01-21T12:51:02.777Z,30.97
2019-01-21T12:53:29.312Z,30.67
2019-01-21T12:55:55.847Z,31.03
2019-01-21T12:58:22.385Z,32.27
2019-01-21T13:00:48.954Z,30.60
2019-01-21T13:03:15.757Z,29.63
2019-01-21T13:05:42.293Z,32.07
2019-01-21T13:08:08.833Z,30.93
2019-01-21T13:10:35.671Z,31.03
2019-01-21T13:13:02.203Z,30.27
2019-01-21T13:15:28.740Z,30.03
2019-01-21T13:17:55.583Z,30.23
2019-01-21T13:20:22.112Z,31.03
2019-01-21T13:22:51.616Z,30.90
2019-01-21T13:25:17.028Z,31.40
2019-01-21T13:27:44.264Z,33.03
2019-01-21T13:30:11.016Z,31.40
2019-01-21T13:32:37.552Z,31.37
2019-01-21T13:35:04.086Z,30.77
2019-01-21T13:37:30.927Z,30.97
2019-01-21T13:39:57.546Z,31.63
2019-01-21T13:42:24.304Z,32.57
2019-01-21T13:44:50.837Z,33.30
2019-01-21T13:47:17.373Z,30.03
2019-01-21T13:49:43.907Z,30.77
2019-01-21T13:52:10.751Z,30.63
2019-01-21T13:54:37.590Z,31.13
2019-01-21T13:57:04.432Z,31.23
2019-01-21T13:59:30.969Z,30.63
2019-01-21T14:01:57.825Z,33.70
2019-01-21T14:04:24.682Z,30.87
2019-01-21T14:06:51.505Z,32.10
2019-01-21T14:09:18.353Z,33.83
2019-01-21T14:11:45.437Z,31.60
2019-01-21T14:14:12.645Z,34.17
2019-01-21T14:16:39.166Z,33.43
2019-01-21T14:19:06.009Z,31.10
2019-01-21T14:21:32.878Z,30.43
2019-01-21T14:24:00.107Z,30.83
2019-01-21T14:26:26.896Z,32.00
2019-01-21T14:28:54.006Z,33.00
2019-01-21T14:31:21.147Z,32.73
2019-01-21T14:33:47.995Z,32.97
2019-01-21T14:36:14.836Z,34.77
2019-01-21T14:38:41.995Z,32.27
2019-01-21T14:41:08.814Z,33.40
2019-01-21T14:43:35.754Z,32.97
2019-01-21T14:46:03.574Z,32.47
2019-01-21T14:48:30.188Z,31.03
2019-01-21T14:50:56.748Z,31.77
2019-01-21T14:53:23.211Z,32.63
2019-01-21T14:55:49.781Z,32.90
2019-01-21T14:58:16.314Z,32.57
2019-01-21T15:00:42.813Z,31.17
2019-01-21T15:03:09.928Z,32.67
2019-01-21T15:05:36.637Z,33.37
2019-01-21T15:08:03.205Z,32.33
2019-01-21T15:10:29.993Z,32.37
2019-01-21T15:12:56.875Z,33.23
2019-01-21T15:15:23.716Z,32.50
2019-01-21T15:17:50.588Z,32.00
2019-01-21T15:20:17.369Z,32.47
2019-01-21T15:22:44.272Z,32.93
2019-01-21T15:25:11.069Z,33.07
2019-01-21T15:27:37.582Z,32.63
2019-01-21T15:30:04.158Z,34.67
2019-01-21T15:32:30.982Z,31.83
2019-01-21T15:34:57.572Z,33.17
2019-01-21T15:37:24.330Z,34.83
2019-01-21T15:39:51.055Z,35.33
2019-01-21T15:42:17.802Z,32.10
2019-01-21T15:44:44.857Z,35.00
2019-01-21T15:47:11.700Z,33.03
2019-01-21T15:49:38.535Z,33.67
2019-01-21T15:52:05.069Z,34.53
2019-01-21T15:54:31.615Z,34.17
2019-01-21T15:56:58.447Z,33.27
2019-01-21T15:59:25.301Z,35.80
2019-01-21T16:01:52.142Z,33.73
2019-01-21T16:04:18.972Z,30.90
2019-01-21T16:06:45.516Z,34.33
2019-01-21T16:09:12.040Z,32.03
2019-01-21T16:11:38.689Z,33.03
2019-01-21T16:14:05.412Z,33.90
2019-01-21T16:16:31.952Z,35.03
2019-01-21T16:18:58.487Z,36.03
2019-01-21T16:21:25.022Z,35.63
2019-01-21T16:23:51.862Z,35.33
2019-01-21T16:26:18.414Z,35.87
2019-01-21T16:28:45.239Z,34.87
2019-01-21T16:31:12.082Z,33.00
2019-01-21T16:33:38.616Z,35.53
2019-01-21T16:36:05.562Z,34.73
2019-01-21T16:38:32.369Z,33.93
2019-01-21T16:40:59.140Z,34.33
2019-01-21T16:43:25.674Z,35.67
2019-01-21T16:45:52.530Z,35.57
2019-01-21T16:48:19.053Z,34.07
2019-01-21T16:50:45.894Z,36.23
2019-01-21T16:53:12.739Z,34.73
2019-01-21T16:55:39.269Z,36.60
2019-01-21T16:58:06.113Z,37.33
2019-01-21T17:00:32.952Z,34.27
2019-01-21T17:02:59.490Z,35.53
2019-01-21T17:05:26.021Z,35.30
2019-01-21T17:07:52.863Z,36.87
2019-01-21T17:10:19.706Z,35.47
2019-01-21T17:12:46.239Z,37.23
2019-01-21T17:15:12.775Z,38.13
2019-01-21T17:17:39.309Z,33.23
2019-01-21T17:20:05.846Z,35.50
2019-01-21T17:22:32.684Z,35.80
2019-01-21T17:24:59.218Z,39.10
2019-01-21T17:27:25.755Z,35.67
2019-01-21T17:29:52.287Z,36.10
2019-01-21T17:32:18.822Z,35.63
2019-01-21T17:34:45.357Z,37.53
2019-01-21T17:37:11.892Z,35.90
2019-01-21T17:39:38.732Z,36.83
2019-01-21T17:42:05.574Z,38.60
2019-01-21T17:44:32.109Z,36.07
2019-01-21T17:46:58.645Z,36.20
2019-01-21T17:49:25.188Z,37.53
2019-01-21T17:51:52.110Z,38.63
2019-01-21T17:54:19.170Z,37.77
2019-01-21T17:56:45.708Z,38.10
2019-01-21T17:59:12.241Z,38.37
2019-01-21T18:01:39.431Z,37.10
2019-01-21T18:04:06.536Z,39.57
2019-01-21T18:06:33.381Z,36.03
2019-01-21T18:09:00.218Z,38.33
2019-01-21T18:11:26.942Z,36.37
2019-01-21T18:13:53.597Z,38.07
2019-01-21T18:16:20.134Z,39.13
2019-01-21T18:18:46.973Z,39.07
2019-01-21T18:21:13.813Z,38.53
2019-01-21T18:23:40.351Z,38.77
2019-01-21T18:26:06.883Z,38.57
2019-01-21T18:28:33.728Z,37.83
2019-01-21T18:31:00.263Z,40.07
2019-01-21T18:33:26.794Z,39.57
2019-01-21T18:35:53.331Z,40.57
2019-01-21T18:38:20.172Z,40.40
2019-01-21T18:40:46.709Z,38.50
2019-01-21T18:43:13.435Z,39.67
2019-01-21T18:45:40.080Z,38.40
2019-01-21T18:48:06.614Z,37.70
2019-01-21T18:50:33.459Z,38.73
2019-01-21T18:52:59.989Z,37.23
2019-01-21T18:55:26.547Z,37.47
2019-01-21T18:57:56.066Z,39.87
2019-01-21T19:00:21.437Z,37.23
2019-01-21T19:02:47.973Z,39.57
2019-01-21T19:05:14.514Z,40.10
2019-01-21T19:07:41.329Z,38.73
2019-01-21T19:10:07.883Z,42.03
2019-01-21T19:12:34.420Z,41.83
2019-01-21T19:15:00.952Z,39.87
2019-01-21T19:17:27.489Z,39.57
2019-01-21T19:19:54.327Z,40.03
2019-01-21T19:22:20.862Z,40.63
2019-01-21T19:24:47.403Z,41.07
2019-01-21T19:27:14.238Z,41.63
2019-01-21T19:29:41.079Z,41.83
2019-01-21T19:32:07.613Z,41.67
2019-01-21T19:34:34.149Z,41.10
2019-01-21T19:37:00.683Z,40.43
2019-01-21T19:39:27.218Z,41.13
2019-01-21T19:41:54.058Z,41.33
2019-01-21T19:44:20.593Z,39.87
2019-01-21T19:46:47.128Z,43.67
2019-01-21T19:49:13.970Z,38.47
2019-01-21T19:51:40.504Z,42.53
2019-01-21T19:54:07.346Z,42.27
2019-01-21T19:56:33.885Z,43.30
2019-01-21T19:59:00.416Z,40.13
2019-01-21T20:01:27.260Z,41.63
2019-01-21T20:03:53.792Z,41.13
2019-01-21T20:06:20.330Z,40.47
2019-01-21T20:08:46.864Z,40.93
2019-01-21T20:11:13.401Z,39.73
2019-01-21T20:13:40.239Z,41.50
2019-01-21T20:16:06.776Z,42.17
2019-01-21T20:18:33.306Z,43.83
2019-01-21T20:21:00.153Z,40.83
2019-01-21T20:23:26.685Z,41.53
2019-01-21T20:25:53.526Z,41.90
2019-01-21T20:28:20.374Z,39.40
2019-01-21T20:30:47.107Z,39.97
2019-01-21T20:33:13.741Z,40.07
2019-01-21T20:35:40.589Z,41.17
2019-01-21T20:38:07.428Z,40.47
2019-01-21T20:40:34.004Z,41.73
2019-01-21T20:43:01.116Z,42.17
2019-01-21T20:45:27.953Z,41.23
2019-01-21T20:47:54.791Z,41.23
2019-01-21T20:50:21.329Z,42.10
2019-01-21T20:52:47.863Z,41.00
2019-01-21T20:55:15.021Z,41.13
2019-01-21T20:57:41.626Z,41.63
2019-01-21T21:00:08.386Z,40.57
2019-01-21T21:02:34.923Z,40.93
2019-01-21T21:05:01.767Z,41.30
2019-01-21T21:07:28.548Z,41.50
2019-01-21T21:09:55.501Z,41.17
2019-01-21T21:12:25.810Z,41.90
2019-01-21T21:14:50.357Z,44.60
2019-01-21T21:17:17.207Z,42.07
2019-01-21T21:19:44.033Z,41.93
2019-01-21T21:22:10.882Z,42.30
2019-01-21T21:24:37.724Z,43.57
2019-01-21T21:27:04.566Z,42.60
2019-01-21T21:29:31.411Z,41.03
2019-01-21T21:31:58.483Z,43.07
2019-01-21T21:34:25.397Z,42.60
2019-01-21T21:36:51.933Z,40.13
2019-01-21T21:39:18.472Z,42.73
2019-01-21T21:41:45.309Z,41.17
2019-01-21T21:44:12.150Z,41.37
2019-01-21T21:46:38.687Z,40.83
2019-01-21T21:49:05.527Z,41.50
2019-01-21T21:51:32.371Z,40.73
2019-01-21T21:53:59.827Z,41.10
2019-01-21T21:56:26.668Z,40.73
2019-01-21T21:58:53.219Z,39.73
2019-01-21T22:01:23.938Z,42.47
2019-01-21T22:03:48.198Z,41.27
2019-01-21T22:06:14.957Z,42.13
2019-01-21T22:08:41.491Z,41.10
2019-01-21T22:11:08.332Z,41.53
2019-01-21T22:13:34.900Z,41.63
2019-01-21T22:16:01.706Z,39.80
2019-01-21T22:18:29.332Z,39.77
2019-01-21T22:20:56.472Z,42.33
2019-01-21T22:23:23.156Z,42.57
2019-01-21T22:25:49.696Z,41.07
2019-01-21T22:28:17.303Z,40.90
2019-01-21T22:30:43.991Z,42.80
2019-01-21T22:33:11.443Z,41.87
2019-01-21T22:35:38.286Z,42.37
2019-01-21T22:38:04.818Z,40.87
2019-01-21T22:40:31.660Z,40.47
2019-01-21T22:42:58.507Z,41.93
2019-01-21T22:45:25.036Z,42.17
2019-01-21T22:47:51.570Z,40.97
2019-01-21T22:50:18.414Z,40.50
2019-01-21T22:52:44.947Z,40.53
2019-01-21T22:55:11.483Z,40.33
2019-01-21T22:57:40.451Z,40.67
2019-01-21T23:00:07.622Z,41.67
2019-01-21T23:02:34.464Z,43.63
2019-01-21T23:05:00.998Z,41.83
2019-01-21T23:07:27.845Z,41.03
2019-01-21T23:09:54.686Z,40.80
2019-01-21T23:12:21.523Z,38.30
2019-01-21T23:14:48.059Z,39.97
2019-01-21T23:17:14.903Z,38.63
2019-01-21T23:19:42.827Z,39.87
2019-01-21T23:22:09.505Z,38.00
2019-01-21T23:24:36.335Z,42.80
2019-01-21T23:27:02.866Z,40.73
2019-01-21T23:29:29.723Z,41.10
2019-01-21T23:31:56.260Z,41.73
2019-01-21T23:34:23.099Z,42.33
2019-01-21T23:36:49.942Z,39.37
2019-01-21T23:39:16.782Z,43.20
2019-01-21T23:41:43.317Z,43.13
2019-01-21T23:44:09.851Z,40.07
2019-01-21T23:46:36.386Z,39.03
2019-01-21T23:49:03.229Z,41.40
2019-01-21T23:51:30.684Z,39.53
2019-01-21T23:53:57.219Z,42.23
2019-01-21T23:56:23.765Z,41.17
2019-01-21T23:58:50.595Z,43.57
